Time;durP1;ratioP1;P1;durP2;ratioP2;P2;SDS_P1;SDS_P2;PMS_P1;PMS_P2;Temp;Humidity;BMP_temperature;BMP_pressure;BME280_temperature;BME280_humidity;BME280_pressure;Samples;Min_cycle;Max_cycle;Signal;HPM_P1;HPM_P2
2021/08/16 00:00:34;;;;;;;2.05;1.40;;;17.20;99.90;;;;;;4984055;28;20176;-76
2021/08/16 00:02:59;;;;;;;1.98;1.10;;;17.30;99.90;;;;;;4982037;28;20230;-74
2021/08/16 00:05:25;;;;;;;3.03;1.58;;;17.40;99.90;;;;;;4983892;28;20188;-75
2021/08/16 00:07:51;;;;;;;1.95;1.27;;;17.50;99.90;;;;;;4982292;28;20219;-77
2021/08/16 00:10:17;;;;;;;1.77;1.48;;;17.70;99.90;;;;;;4983980;28;20212;-76
2021/08/16 00:12:42;;;;;;;2.45;1.48;;;17.70;99.90;;;;;;4983726;28;20183;-76
2021/08/16 00:15:09;;;;;;;1.30;1.17;;;17.70;99.90;;;;;;4983421;28;20196;-77
2021/08/16 00:17:34;;;;;;;4.78;1.70;;;17.70;99.90;;;;;;4983779;28;20698;-76
2021/08/16 00:20:00;;;;;;;1.85;1.55;;;17.80;99.90;;;;;;4983561;28;20307;-75
2021/08/16 00:22:26;;;;;;;2.22;1.85;;;17.80;99.90;;;;;;4983948;28;20251;-77
2021/08/16 00:24:52;;;;;;;2.33;1.73;;;17.80;99.90;;;;;;4983014;28;20307;-75
2021/08/16 00:27:18;;;;;;;2.13;1.45;;;17.80;99.90;;;;;;4983532;28;20290;-75
2021/08/16 00:29:44;;;;;;;1.80;1.20;;;17.90;99.90;;;;;;4982260;28;20188;-77
2021/08/16 00:32:10;;;;;;;2.00;1.38;;;17.80;99.90;;;;;;4983819;28;20218;-77
2021/08/16 00:34:36;;;;;;;2.83;1.30;;;17.80;99.90;;;;;;4983291;28;20188;-77
2021/08/16 00:37:02;;;;;;;2.60;1.33;;;17.80;99.90;;;;;;4983266;28;20200;-76
2021/08/16 00:39:28;;;;;;;1.65;1.20;;;17.80;99.90;;;;;;4983840;28;20191;-77
2021/08/16 00:41:54;;;;;;;1.98;1.50;;;17.80;99.90;;;;;;4982040;28;20188;-77
2021/08/16 00:44:20;;;;;;;2.33;1.50;;;17.80;99.90;;;;;;4983238;28;20177;-75
2021/08/16 00:46:47;;;;;;;2.08;1.52;;;17.80;99.90;;;;;;4984128;28;20274;-76
2021/08/16 00:49:14;;;;;;;4.30;1.13;;;17.70;99.90;;;;;;4987172;28;20404;-76
2021/08/16 00:51:40;;;;;;;1.67;1.33;;;17.70;99.90;;;;;;4987056;28;20212;-75
2021/08/16 00:54:07;;;;;;;1.85;1.30;;;17.60;99.90;;;;;;4985190;28;20631;-75
2021/08/16 00:56:38;;;;;;;1.77;1.52;;;17.60;99.90;;;;;;4985715;28;20211;-76
2021/08/16 00:59:09;;;;;;;1.80;1.40;;;17.50;99.90;;;;;;4986673;28;20200;-74
2021/08/16 01:01:35;;;;;;;1.90;1.70;;;17.60;99.90;;;;;;4987022;28;20184;-77
2021/08/16 01:04:01;;;;;;;2.70;1.60;;;17.50;99.90;;;;;;4986662;28;21344;-77
2021/08/16 01:06:27;;;;;;;1.33;1.23;;;17.60;99.90;;;;;;4986865;28;20192;-77
2021/08/16 01:08:53;;;;;;;1.42;1.00;;;17.50;99.90;;;;;;4986551;28;20200;-76
2021/08/16 01:11:20;;;;;;;1.55;1.20;;;17.40;99.90;;;;;;4987164;28;20196;-76
2021/08/16 01:13:47;;;;;;;3.15;1.60;;;17.40;99.90;;;;;;4986212;28;20643;-77
2021/08/16 01:16:15;;;;;;;1.92;1.30;;;17.40;99.90;;;;;;4986852;28;20196;-76
2021/08/16 01:18:40;;;;;;;3.22;1.42;;;17.30;99.90;;;;;;4985202;28;20792;-76
2021/08/16 01:21:08;;;;;;;2.85;1.80;;;17.30;99.90;;;;;;4986785;28;20180;-76
2021/08/16 01:23:35;;;;;;;2.20;1.60;;;17.30;99.90;;;;;;4986252;28;21152;-75
2021/08/16 01:26:01;;;;;;;2.10;1.33;;;17.20;99.90;;;;;;4986737;28;20180;-77
2021/08/16 01:28:27;;;;;;;2.40;1.35;;;17.20;99.90;;;;;;4986425;28;20208;-76
2021/08/16 01:30:56;;;;;;;1.25;1.00;;;17.20;99.90;;;;;;4986849;28;20180;-76
2021/08/16 01:33:22;;;;;;;2.50;1.50;;;17.10;99.90;;;;;;4986228;28;20582;-77
2021/08/16 01:35:48;;;;;;;1.58;1.33;;;17.00;99.90;;;;;;4986210;28;20200;-77
2021/08/16 01:38:14;;;;;;;2.03;1.50;;;17.00;99.90;;;;;;4985951;28;20288;-77
2021/08/16 01:40:39;;;;;;;2.55;1.70;;;17.00;99.90;;;;;;4986376;28;20725;-76
2021/08/16 01:43:05;;;;;;;2.97;1.73;;;16.80;99.90;;;;;;4984511;28;20188;-75
2021/08/16 01:45:31;;;;;;;1.70;1.35;;;16.70;99.90;;;;;;4986081;28;20184;-75
2021/08/16 01:47:57;;;;;;;2.17;1.48;;;16.80;99.90;;;;;;4985845;28;20208;-74
2021/08/16 01:50:23;;;;;;;2.10;1.30;;;16.70;99.90;;;;;;4986208;28;20191;-76
2021/08/16 01:52:49;;;;;;;2.08;1.58;;;16.70;99.90;;;;;;4973649;28;20539;-76
2021/08/16 01:55:15;;;;;;;1.60;1.15;;;16.50;99.90;;;;;;4985840;28;20216;-77
2021/08/16 01:57:41;;;;;;;1.90;1.70;;;16.50;99.90;;;;;;4985242;28;20719;-76
2021/08/16 02:00:07;;;;;;;2.08;1.40;;;16.40;99.90;;;;;;4985887;28;20231;-76
2021/08/16 02:02:33;;;;;;;1.75;1.50;;;16.40;99.90;;;;;;4984313;28;20180;-77
2021/08/16 02:04:58;;;;;;;1.55;1.27;;;16.30;99.90;;;;;;4985518;28;20199;-76
2021/08/16 02:07:24;;;;;;;1.50;1.33;;;16.20;99.90;;;;;;4985465;28;20214;-77
2021/08/16 02:09:49;;;;;;;2.90;1.60;;;16.30;99.90;;;;;;4985812;28;21352;-76
2021/08/16 02:12:15;;;;;;;1.85;1.30;;;16.20;99.90;;;;;;4985589;28;20211;-77
2021/08/16 02:14:40;;;;;;;1.60;1.27;;;16.10;99.90;;;;;;4985214;28;20668;-75
2021/08/16 02:17:06;;;;;;;2.28;1.70;;;16.10;99.90;;;;;;4985550;28;20314;-77
2021/08/16 02:19:32;;;;;;;1.80;1.50;;;16.10;99.90;;;;;;4985171;28;20977;-76
2021/08/16 02:21:58;;;;;;;2.72;1.85;;;16.10;99.90;;;;;;4985913;28;20192;-75
2021/08/16 02:24:23;;;;;;;1.65;1.30;;;16.00;99.90;;;;;;4984868;28;20187;-75
2021/08/16 02:26:49;;;;;;;2.25;1.60;;;15.90;99.90;;;;;;4985544;28;20246;-76
2021/08/16 02:29:15;;;;;;;1.88;1.30;;;15.90;99.90;;;;;;4985195;28;20215;-76
2021/08/16 02:31:40;;;;;;;2.00;1.58;;;16.00;99.90;;;;;;4985918;28;20188;-76
2021/08/16 02:34:06;;;;;;;2.70;1.50;;;16.00;99.90;;;;;;4984704;28;20250;-76
2021/08/16 02:36:32;;;;;;;2.17;1.10;;;16.00;99.90;;;;;;4983987;28;20216;-76
2021/08/16 02:38:57;;;;;;;2.58;1.73;;;16.10;99.90;;;;;;4985035;28;20216;-77
2021/08/16 02:41:23;;;;;;;1.55;1.42;;;16.30;99.90;;;;;;4985391;28;21147;-76
2021/08/16 02:43:49;;;;;;;1.90;1.30;;;16.50;99.90;;;;;;4984950;28;20199;-76
2021/08/16 02:46:14;;;;;;;1.27;1.10;;;16.70;99.90;;;;;;4984842;28;20184;-75
2021/08/16 02:48:40;;;;;;;1.95;1.20;;;16.70;99.90;;;;;;4985182;28;20240;-77
2021/08/16 02:51:06;;;;;;;5.53;1.77;;;16.70;99.90;;;;;;4984746;28;20195;-76
2021/08/16 02:53:31;;;;;;;2.08;1.58;;;16.80;99.90;;;;;;4983669;28;20560;-77
2021/08/16 02:55:57;;;;;;;2.47;1.40;;;16.80;99.90;;;;;;4984548;28;20235;-76
2021/08/16 02:58:23;;;;;;;3.20;1.02;;;16.80;99.90;;;;;;4984810;28;20638;-75
2021/08/16 03:00:49;;;;;;;1.67;1.20;;;16.80;99.90;;;;;;4984460;28;20250;-77
2021/08/16 03:03:15;;;;;;;4.20;1.33;;;16.90;99.90;;;;;;4984511;28;20243;-75
2021/08/16 03:05:41;;;;;;;2.42;1.50;;;16.90;99.90;;;;;;4984391;28;21257;-77
2021/08/16 03:08:06;;;;;;;1.67;1.40;;;17.00;99.90;;;;;;4984711;28;21125;-75
2021/08/16 03:10:33;;;;;;;2.03;1.40;;;17.10;99.90;;;;;;4982544;28;20194;-76
2021/08/16 03:12:59;;;;;;;1.85;1.20;;;17.00;99.90;;;;;;4983193;28;20670;-76
2021/08/16 03:15:25;;;;;;;2.58;1.48;;;16.90;99.90;;;;;;4984222;28;20610;-76
2021/08/16 03:17:51;;;;;;;1.58;1.30;;;16.90;99.90;;;;;;4984425;28;20224;-74
2021/08/16 03:20:17;;;;;;;1.55;1.20;;;16.90;99.90;;;;;;4984489;28;20203;-74
2021/08/16 03:22:42;;;;;;;2.28;1.60;;;16.80;99.90;;;;;;4984755;28;20184;-76
2021/08/16 03:25:09;;;;;;;2.33;1.55;;;16.90;99.90;;;;;;4983956;28;21147;-76
2021/08/16 03:27:35;;;;;;;2.30;1.20;;;16.90;99.90;;;;;;4988974;28;20199;-78
2021/08/16 03:30:02;;;;;;;2.22;1.40;;;16.90;99.90;;;;;;4990055;28;20243;-78
2021/08/16 03:32:28;;;;;;;2.63;1.60;;;16.80;99.90;;;;;;4989410;28;20184;-78
2021/08/16 03:34:54;;;;;;;2.13;1.75;;;16.80;99.90;;;;;;4986801;28;20234;-75
2021/08/16 03:37:19;;;;;;;2.08;1.38;;;16.80;99.90;;;;;;4985595;28;20604;-76
2021/08/16 03:39:45;;;;;;;3.75;1.98;;;16.90;99.90;;;;;;4984226;28;20188;-80
2021/08/16 03:42:10;;;;;;;3.30;1.42;;;17.10;99.90;;;;;;4986748;28;20698;-77
2021/08/16 03:44:36;;;;;;;3.80;1.60;;;17.20;99.90;;;;;;4986708;28;20183;-78
2021/08/16 03:47:02;;;;;;;9.40;2.17;;;17.20;99.90;;;;;;4986595;28;20203;-78
2021/08/16 03:49:28;;;;;;;1.80;1.30;;;17.40;99.90;;;;;;4986820;28;20188;-77
2021/08/16 03:51:53;;;;;;;2.25;1.67;;;17.50;99.90;;;;;;4987046;28;20247;-79
2021/08/16 03:54:19;;;;;;;2.95;1.75;;;17.40;99.90;;;;;;4984929;28;20187;-78
2021/08/16 03:56:44;;;;;;;6.55;1.77;;;17.50;99.90;;;;;;4986853;28;20196;-78
2021/08/16 03:59:10;;;;;;;3.17;1.92;;;17.60;99.90;;;;;;4985746;28;20199;-77
2021/08/16 04:01:35;;;;;;;2.92;1.67;;;17.70;99.90;;;;;;4987289;28;20262;-80
2021/08/16 04:04:02;;;;;;;4.43;1.60;;;17.80;99.90;;;;;;4986406;28;20183;-77
2021/08/16 04:06:28;;;;;;;3.05;2.00;;;17.80;99.90;;;;;;4985719;28;20199;-77
2021/08/16 04:08:54;;;;;;;2.72;1.73;;;17.90;99.90;;;;;;4986282;28;20211;-76
2021/08/16 04:11:20;;;;;;;2.90;2.17;;;17.80;99.90;;;;;;4985290;28;20595;-78
2021/08/16 04:13:45;;;;;;;2.95;2.20;;;17.90;99.90;;;;;;4985537;28;20681;-79
2021/08/16 04:16:11;;;;;;;4.18;2.20;;;17.90;99.90;;;;;;4985360;28;20202;-78
2021/08/16 04:18:37;;;;;;;3.28;2.10;;;17.80;99.90;;;;;;4986992;28;20196;-77
2021/08/16 04:21:03;;;;;;;3.05;1.58;;;17.80;99.90;;;;;;4985733;28;20180;-77
2021/08/16 04:23:29;;;;;;;4.28;2.22;;;17.70;99.90;;;;;;4990256;28;20227;-77
2021/08/16 04:25:55;;;;;;;3.80;2.63;;;17.60;99.90;;;;;;4990493;28;20191;-77
2021/08/16 04:28:20;;;;;;;2.95;2.65;;;17.60;99.90;;;;;;4990755;28;20240;-77
2021/08/16 04:30:46;;;;;;;3.97;2.67;;;17.40;99.90;;;;;;4989918;28;20239;-77
2021/08/16 04:33:13;;;;;;;5.22;2.97;;;17.50;99.90;;;;;;4990505;28;20180;-79
2021/08/16 04:35:39;;;;;;;3.08;2.38;;;17.40;99.90;;;;;;4990288;28;20188;-76
2021/08/16 04:38:05;;;;;;;3.90;2.33;;;17.40;99.90;;;;;;4990884;28;20216;-77
2021/08/16 04:40:30;;;;;;;3.15;2.58;;;17.30;99.90;;;;;;4990149;28;20198;-77
2021/08/16 04:42:56;;;;;;;5.07;2.50;;;17.30;99.90;;;;;;4990183;28;20562;-77
2021/08/16 04:45:22;;;;;;;5.82;2.38;;;17.30;99.90;;;;;;4990014;28;20274;-77
2021/08/16 04:47:47;;;;;;;7.05;2.55;;;17.30;99.90;;;;;;4989755;28;20254;-76
2021/08/16 04:50:15;;;;;;;5.05;2.38;;;17.30;99.90;;;;;;4990689;28;20551;-77
2021/08/16 04:52:42;;;;;;;4.30;2.30;;;17.50;99.90;;;;;;4989722;28;20185;-79
2021/08/16 04:55:08;;;;;;;3.22;2.55;;;17.50;99.90;;;;;;4987847;28;20192;-75
2021/08/16 04:57:35;;;;;;;3.55;2.88;;;17.50;99.90;;;;;;4989446;28;20222;-77
2021/08/16 05:00:04;;;;;;;4.75;2.78;;;17.60;99.90;;;;;;4988362;28;20180;-77
2021/08/16 05:02:30;;;;;;;2.95;2.33;;;17.80;99.90;;;;;;4988690;28;20554;-77
2021/08/16 05:04:57;;;;;;;4.97;3.40;;;17.90;99.90;;;;;;4989255;28;20186;-76
2021/08/16 05:07:23;;;;;;;6.05;2.70;;;17.90;99.90;;;;;;4989063;28;20247;-78
2021/08/16 05:09:53;;;;;;;4.05;2.63;;;18.00;99.90;;;;;;4989104;28;20220;-77
2021/08/16 05:12:19;;;;;;;4.28;3.17;;;18.10;99.90;;;;;;4989428;28;20275;-76
2021/08/16 05:14:45;;;;;;;4.13;2.70;;;18.20;99.90;;;;;;4988828;28;20191;-76
2021/08/16 05:17:11;;;;;;;6.53;3.40;;;18.30;99.90;;;;;;4989110;28;20583;-77
2021/08/16 05:19:38;;;;;;;5.72;2.65;;;18.40;99.90;;;;;;4987525;28;20270;-78
2021/08/16 05:22:08;;;;;;;4.03;2.90;;;18.50;99.90;;;;;;4990117;28;20219;-75
2021/08/16 05:24:34;;;;;;;4.25;3.10;;;18.50;99.90;;;;;;4987267;28;20555;-77
2021/08/16 05:27:00;;;;;;;4.32;3.05;;;18.40;99.90;;;;;;4987123;28;20192;-77
2021/08/16 05:29:26;;;;;;;4.28;2.78;;;18.60;99.90;;;;;;4984570;28;20192;-77
2021/08/16 05:31:51;;;;;;;3.55;2.40;;;19.10;99.90;;;;;;4989373;28;20214;-76
2021/08/16 05:34:17;;;;;;;3.28;2.15;;;19.50;99.90;;;;;;4987650;28;20682;-78
2021/08/16 05:36:43;;;;;;;3.13;1.80;;;20.20;99.90;;;;;;4987376;28;20215;-77
2021/08/16 05:39:08;;;;;;;3.85;1.77;;;21.30;99.90;;;;;;4987885;28;20298;-76
2021/08/16 05:41:34;;;;;;;2.47;2.00;;;22.30;99.90;;;;;;4988731;28;20184;-77
2021/08/16 05:43:59;;;;;;;3.10;1.90;;;23.10;99.90;;;;;;4987730;28;20195;-77
2021/08/16 05:46:25;;;;;;;2.53;2.10;;;23.50;99.90;;;;;;4988167;28;20508;-78
2021/08/16 05:48:50;;;;;;;4.43;2.45;;;23.90;99.90;;;;;;4987250;28;20740;-77
2021/08/16 05:51:16;;;;;;;2.83;2.17;;;24.00;99.90;;;;;;4988076;28;20243;-77
2021/08/16 05:53:41;;;;;;;3.20;1.80;;;24.00;99.90;;;;;;4988430;28;20184;-77
2021/08/16 05:56:07;;;;;;;5.18;2.50;;;23.80;99.90;;;;;;4988789;28;20214;-77
2021/08/16 05:58:33;;;;;;;2.78;2.42;;;24.10;99.90;;;;;;4986307;28;20220;-77
2021/08/16 06:00:59;;;;;;;2.10;1.92;;;23.70;99.90;;;;;;4988457;28;20200;-79
2021/08/16 06:03:24;;;;;;;3.25;1.98;;;23.70;99.90;;;;;;4988258;28;20439;-78
2021/08/16 06:05:50;;;;;;;2.55;2.35;;;23.80;99.90;;;;;;4988062;28;20188;-76
2021/08/16 06:08:15;;;;;;;2.58;2.30;;;23.30;99.90;;;;;;4988034;28;20645;-77
2021/08/16 06:10:41;;;;;;;2.22;2.03;;;22.60;99.90;;;;;;4988903;28;20180;-77
2021/08/16 06:13:06;;;;;;;3.85;2.50;;;21.70;99.90;;;;;;4987316;28;20275;-77
2021/08/16 06:15:32;;;;;;;2.38;2.17;;;21.10;99.90;;;;;;4987805;28;20287;-78
2021/08/16 06:17:58;;;;;;;3.70;2.58;;;21.10;99.90;;;;;;4987463;28;20216;-77
2021/08/16 06:20:24;;;;;;;3.00;2.70;;;21.10;99.90;;;;;;4987326;28;20291;-77
2021/08/16 06:22:49;;;;;;;3.47;2.50;;;21.20;99.90;;;;;;4988082;28;20192;-77
2021/08/16 06:25:16;;;;;;;2.92;2.05;;;21.60;99.90;;;;;;4988352;28;20191;-77
2021/08/16 06:27:41;;;;;;;4.72;1.90;;;22.10;99.90;;;;;;4987811;28;20243;-76
2021/08/16 06:30:08;;;;;;;2.05;1.85;;;21.90;99.90;;;;;;4988490;28;20230;-76
2021/08/16 06:32:35;;;;;;;3.05;1.52;;;22.00;99.90;;;;;;4989251;28;20192;-77
2021/08/16 06:35:01;;;;;;;2.58;1.58;;;21.80;99.90;;;;;;4988075;28;20591;-76
2021/08/16 06:37:27;;;;;;;2.05;1.85;;;21.40;99.90;;;;;;4988776;28;20212;-77
2021/08/16 06:39:52;;;;;;;2.25;1.58;;;21.00;99.90;;;;;;4988351;28;20195;-77
2021/08/16 06:42:21;;;;;;;2.92;1.90;;;20.80;99.90;;;;;;4986969;28;20201;-76
2021/08/16 06:44:47;;;;;;;1.92;1.63;;;20.60;99.90;;;;;;4987924;28;20180;-77
2021/08/16 06:47:13;;;;;;;4.18;1.70;;;20.70;99.90;;;;;;4988005;28;20246;-77
2021/08/16 06:49:39;;;;;;;2.72;1.88;;;20.50;99.90;;;;;;4988320;28;20206;-75
2021/08/16 06:52:05;;;;;;;4.55;2.00;;;20.40;99.90;;;;;;4989240;28;20267;-77
2021/08/16 06:54:30;;;;;;;3.22;1.67;;;20.40;99.90;;;;;;4987910;28;20195;-77
2021/08/16 06:56:57;;;;;;;1.63;1.52;;;20.50;99.90;;;;;;4988165;28;20270;-77
2021/08/16 06:59:23;;;;;;;2.47;1.90;;;20.50;99.90;;;;;;4986824;28;20279;-77
2021/08/16 07:01:49;;;;;;;2.28;1.50;;;20.50;99.90;;;;;;4989269;28;20279;-77
2021/08/16 07:04:15;;;;;;;3.08;1.60;;;20.70;99.90;;;;;;4986695;28;20190;-77
2021/08/16 07:06:40;;;;;;;2.17;1.50;;;20.50;99.90;;;;;;4988357;28;20562;-76
2021/08/16 07:09:06;;;;;;;2.78;1.70;;;20.50;99.90;;;;;;4988533;28;20690;-76
2021/08/16 07:11:32;;;;;;;3.90;1.70;;;20.40;99.90;;;;;;4987649;28;20459;-76
2021/08/16 07:13:57;;;;;;;1.75;1.40;;;20.50;99.90;;;;;;4987909;28;20211;-78
2021/08/16 07:16:23;;;;;;;1.30;1.15;;;20.90;99.90;;;;;;4987548;28;20196;-77
2021/08/16 07:18:50;;;;;;;1.83;1.40;;;21.10;99.90;;;;;;4986866;28;20219;-77
2021/08/16 07:21:15;;;;;;;1.52;1.42;;;21.10;99.90;;;;;;4987535;28;20180;-77
2021/08/16 07:23:41;;;;;;;1.60;1.38;;;20.90;99.90;;;;;;4987869;28;20195;-76
2021/08/16 07:26:07;;;;;;;3.00;1.38;;;20.80;99.90;;;;;;4986992;28;20181;-76
2021/08/16 07:28:35;;;;;;;2.08;1.50;;;20.90;99.90;;;;;;4986575;28;20214;-77
2021/08/16 07:31:01;;;;;;;1.17;1.08;;;21.00;99.90;;;;;;4985221;28;20237;-76
2021/08/16 07:33:27;;;;;;;2.20;1.48;;;21.00;99.90;;;;;;4986713;28;20202;-78
2021/08/16 07:35:53;;;;;;;4.78;1.52;;;21.20;99.90;;;;;;4986297;28;20355;-77
2021/08/16 07:38:18;;;;;;;2.53;1.40;;;21.60;99.90;;;;;;4987373;28;20306;-77
2021/08/16 07:40:44;;;;;;;3.45;1.55;;;21.50;99.90;;;;;;4986985;28;20259;-77
2021/08/16 07:43:10;;;;;;;1.67;1.33;;;21.20;99.90;;;;;;4985695;28;20903;-77
2021/08/16 07:45:36;;;;;;;1.30;1.15;;;21.00;99.90;;;;;;4986721;28;20188;-76
2021/08/16 07:48:03;;;;;;;1.83;1.38;;;20.90;99.90;;;;;;4987480;28;20222;-78
2021/08/16 07:50:30;;;;;;;2.42;1.40;;;21.10;99.90;;;;;;4985477;28;20216;-77
2021/08/16 07:52:56;;;;;;;3.42;1.25;;;21.50;99.90;;;;;;4987147;28;20279;-76
2021/08/16 07:55:21;;;;;;;2.30;1.23;;;21.60;99.90;;;;;;4985813;28;20272;-75
2021/08/16 07:57:47;;;;;;;5.45;1.95;;;21.50;99.90;;;;;;4985602;28;20230;-76
2021/08/16 08:00:13;;;;;;;4.13;1.70;;;21.30;99.90;;;;;;4986059;28;20239;-76
2021/08/16 08:02:47;;;;;;;2.03;1.33;;;21.00;99.90;;;;;;4987171;28;20538;-77
2021/08/16 08:05:15;;;;;;;4.60;1.13;;;21.10;99.90;;;;;;4986630;28;20184;-77
2021/08/16 08:07:41;;;;;;;4.90;1.83;;;21.30;99.90;;;;;;4985338;28;20205;-76
2021/08/16 08:10:08;;;;;;;2.47;1.50;;;21.30;99.90;;;;;;4986391;28;20212;-77
2021/08/16 08:12:34;;;;;;;2.60;1.48;;;21.60;99.90;;;;;;4985576;28;20188;-77
2021/08/16 08:15:00;;;;;;;2.75;1.40;;;21.70;99.90;;;;;;4986078;28;20255;-78
2021/08/16 08:17:26;;;;;;;1.60;1.40;;;21.50;99.90;;;;;;4986621;28;20211;-77
2021/08/16 08:19:54;;;;;;;2.22;1.48;;;21.30;99.90;;;;;;4985815;28;20206;-77
2021/08/16 08:22:21;;;;;;;3.05;1.83;;;21.30;99.90;;;;;;4984425;28;20351;-77
2021/08/16 08:24:46;;;;;;;5.45;2.05;;;21.20;99.90;;;;;;4984702;28;20176;-76
2021/08/16 08:27:13;;;;;;;2.50;1.55;;;21.30;99.90;;;;;;4983233;28;20577;-77
2021/08/16 08:29:40;;;;;;;5.90;1.48;;;21.10;99.90;;;;;;4985896;28;20184;-75
2021/08/16 08:32:06;;;;;;;2.63;1.88;;;21.20;99.90;;;;;;4987099;28;20180;-78
2021/08/16 08:34:32;;;;;;;1.67;1.50;;;21.20;99.90;;;;;;4985454;28;20191;-79
2021/08/16 08:36:58;;;;;;;2.00;1.50;;;21.20;99.90;;;;;;4987278;28;20200;-76
2021/08/16 08:39:23;;;;;;;1.98;1.63;;;21.00;99.90;;;;;;4987573;28;20193;-77
2021/08/16 08:41:52;;;;;;;3.28;1.73;;;21.10;99.90;;;;;;4987503;28;20214;-78
2021/08/16 08:44:20;;;;;;;3.65;1.67;;;21.50;99.90;;;;;;4987515;28;20207;-77
2021/08/16 08:46:47;;;;;;;3.05;1.70;;;22.00;99.90;;;;;;4988587;28;20188;-75
2021/08/16 08:49:14;;;;;;;2.58;1.60;;;21.90;99.90;;;;;;4992842;28;20212;-76
2021/08/16 08:51:40;;;;;;;1.95;1.63;;;21.80;99.90;;;;;;4986514;28;20192;-78
2021/08/16 08:54:06;;;;;;;9.52;2.00;;;21.60;99.90;;;;;;4986383;28;20680;-76
2021/08/16 08:56:32;;;;;;;3.30;1.67;;;21.60;99.90;;;;;;4986855;28;20196;-77
2021/08/16 08:58:58;;;;;;;2.95;1.52;;;21.90;99.90;;;;;;4986739;28;20200;-79
2021/08/16 09:01:25;;;;;;;2.15;1.45;;;22.00;99.90;;;;;;4986903;28;20192;-78
2021/08/16 09:03:53;;;;;;;3.85;1.70;;;22.40;99.90;;;;;;4986799;28;20242;-78
2021/08/16 09:06:33;;;;;;;2.13;1.55;;;22.40;99.90;;;;;;4985279;28;20193;-79
2021/08/16 09:08:59;;;;;;;2.20;1.27;;;22.10;99.90;;;;;;4987825;28;20214;-79
2021/08/16 09:11:27;;;;;;;2.40;1.38;;;22.10;99.90;;;;;;4989816;28;20185;-79
2021/08/16 09:14:00;;;;;;;2.10;1.25;;;22.00;99.90;;;;;;4988537;28;20207;-77
2021/08/16 09:16:29;;;;;;;2.75;1.50;;;21.90;99.90;;;;;;4989146;28;20184;-79
2021/08/16 09:18:55;;;;;;;3.10;1.58;;;21.60;99.90;;;;;;4989263;28;20211;-76
2021/08/16 09:21:37;;;;;;;2.15;1.52;;;21.50;99.90;;;;;;4989574;28;20315;-79
2021/08/16 09:24:04;;;;;;;2.60;1.80;;;21.70;99.90;;;;;;4987698;28;20204;-78
2021/08/16 09:26:32;;;;;;;2.47;1.20;;;21.60;99.90;;;;;;4989376;28;20651;-79
2021/08/16 09:29:22;;;;;;;3.20;1.25;;;21.50;99.90;;;;;;4988640;28;20291;-79
2021/08/16 09:31:51;;;;;;;1.75;1.20;;;21.50;99.90;;;;;;4988420;28;20187;-78
2021/08/16 09:34:47;;;;;;;1.38;1.27;;;21.40;99.90;;;;;;4988456;28;20196;-78
2021/08/16 09:37:15;;;;;;;2.55;1.33;;;21.40;99.90;;;;;;4980887;28;20266;-78
2021/08/16 09:39:43;;;;;;;2.47;1.40;;;21.40;99.90;;;;;;4989689;28;20188;-78
2021/08/16 09:42:09;;;;;;;3.00;1.70;;;21.40;99.90;;;;;;4989522;28;20176;-77
2021/08/16 09:44:46;;;;;;;2.65;1.70;;;21.70;99.90;;;;;;4989362;28;20192;-78
2021/08/16 09:47:12;;;;;;;1.63;1.40;;;21.90;99.90;;;;;;4988240;28;20183;-77
2021/08/16 09:49:37;;;;;;;3.38;1.60;;;22.00;99.90;;;;;;4988517;28;20192;-78
2021/08/16 09:52:11;;;;;;;2.05;1.50;;;21.90;99.90;;;;;;4991172;28;20196;-77
2021/08/16 09:54:39;;;;;;;5.53;2.13;;;21.60;99.90;;;;;;4988404;28;20650;-79
2021/08/16 09:57:07;;;;;;;2.35;1.63;;;21.40;99.90;;;;;;4989629;28;20239;-78
2021/08/16 09:59:34;;;;;;;3.13;1.60;;;21.50;99.90;;;;;;4989080;28;20191;-77
2021/08/16 10:02:00;;;;;;;1.70;1.45;;;21.60;99.90;;;;;;4988139;28;20605;-78
2021/08/16 10:04:27;;;;;;;1.92;1.20;;;21.80;99.90;;;;;;4988982;28;20709;-78
2021/08/16 10:06:54;;;;;;;2.03;1.67;;;22.10;99.90;;;;;;4988981;28;20191;-78
2021/08/16 10:09:22;;;;;;;2.70;1.63;;;22.50;99.90;;;;;;4987937;28;20219;-77
2021/08/16 10:11:52;;;;;;;1.70;1.45;;;22.60;99.90;;;;;;4989012;28;20176;-79
2021/08/16 10:14:22;;;;;;;2.45;1.50;;;23.00;99.90;;;;;;4988945;28;20188;-77
2021/08/16 10:16:52;;;;;;;2.88;1.45;;;23.20;99.90;;;;;;4988850;28;20666;-78
2021/08/16 10:19:29;;;;;;;1.73;1.63;;;23.40;99.90;;;;;;4986986;28;20224;-78
2021/08/16 10:22:01;;;;;;;1.88;1.45;;;23.70;99.90;;;;;;4988860;28;20309;-77
2021/08/16 10:24:30;;;;;;;3.03;1.70;;;23.90;99.90;;;;;;4987019;28;20176;-77
2021/08/16 10:26:57;;;;;;;3.70;1.23;;;24.00;99.90;;;;;;4989344;28;20195;-76
2021/08/16 10:29:22;;;;;;;2.55;1.95;;;24.10;99.90;;;;;;4988408;28;20219;-77
2021/08/16 10:31:50;;;;;;;3.92;1.70;;;24.40;99.90;;;;;;4988285;28;20223;-78
2021/08/16 10:34:36;;;;;;;3.05;1.65;;;24.60;99.90;;;;;;4986885;28;20283;-78
2021/08/16 10:37:10;;;;;;;3.33;1.85;;;24.00;99.90;;;;;;4986409;28;20233;-77
2021/08/16 10:39:43;;;;;;;2.00;1.50;;;23.50;99.90;;;;;;4986814;28;20191;-77
2021/08/16 10:42:18;;;;;;;2.58;2.17;;;23.10;99.90;;;;;;4988669;28;20248;-76
2021/08/16 10:44:46;;;;;;;3.60;2.20;;;22.90;99.90;;;;;;4986475;28;20773;-78
2021/08/16 10:47:25;;;;;;;1.80;1.40;;;23.20;99.90;;;;;;4986367;28;20574;-77
2021/08/16 10:50:04;;;;;;;3.15;1.70;;;23.20;99.90;;;;;;4987149;28;20215;-79
2021/08/16 10:52:31;;;;;;;1.50;1.40;;;23.20;99.90;;;;;;4986636;28;20203;-76
2021/08/16 10:55:16;;;;;;;2.85;1.75;;;23.00;99.90;;;;;;4987432;28;20196;-79
2021/08/16 10:57:43;;;;;;;4.45;2.17;;;22.70;99.90;;;;;;4987988;28;20220;-77
2021/08/16 11:00:12;;;;;;;1.60;1.50;;;22.50;99.90;;;;;;4987535;28;20200;-77
2021/08/16 11:02:39;;;;;;;2.58;1.60;;;22.40;99.90;;;;;;4987563;28;20937;-76
2021/08/16 11:05:06;;;;;;;2.97;1.70;;;22.40;99.90;;;;;;4987522;28;20191;-77
2021/08/16 11:07:31;;;;;;;2.42;1.85;;;22.50;99.90;;;;;;4985846;28;20231;-79
2021/08/16 11:10:00;;;;;;;2.33;2.00;;;22.50;99.90;;;;;;4986620;28;20262;-77
2021/08/16 11:12:38;;;;;;;3.58;2.20;;;22.40;99.90;;;;;;4987545;28;20187;-77
2021/08/16 11:15:05;;;;;;;4.63;2.20;;;21.90;99.90;;;;;;4984899;28;20179;-77
2021/08/16 11:17:30;;;;;;;2.35;1.77;;;21.70;99.90;;;;;;4982971;28;20272;-76
2021/08/16 11:20:03;;;;;;;3.10;1.92;;;21.40;99.90;;;;;;4985948;28;20204;-78
2021/08/16 11:22:29;;;;;;;2.45;1.83;;;21.30;99.90;;;;;;4987728;28;20191;-77
2021/08/16 11:24:55;;;;;;;4.03;1.85;;;21.20;99.90;;;;;;4988019;28;20184;-76
2021/08/16 11:27:27;;;;;;;3.03;1.98;;;21.00;99.90;;;;;;4987993;28;20533;-78
2021/08/16 11:30:05;;;;;;;3.90;2.20;;;21.10;99.90;;;;;;4987577;28;20267;-77
2021/08/16 11:32:33;;;;;;;4.07;1.90;;;21.10;99.90;;;;;;4986516;28;20184;-78
2021/08/16 11:34:59;;;;;;;2.53;2.00;;;21.20;99.90;;;;;;4987980;28;20224;-78
2021/08/16 11:37:28;;;;;;;2.42;2.15;;;21.20;99.90;;;;;;4988219;28;20238;-77
2021/08/16 11:39:54;;;;;;;3.55;2.08;;;21.10;99.90;;;;;;4988695;28;20677;-77
2021/08/16 11:42:22;;;;;;;2.58;2.10;;;21.10;99.90;;;;;;4987519;28;20196;-77
2021/08/16 11:45:01;;;;;;;2.63;2.17;;;21.10;99.90;;;;;;4987169;28;20271;-76
2021/08/16 11:47:32;;;;;;;3.50;1.80;;;21.10;99.90;;;;;;4987951;28;20258;-76
2021/08/16 11:49:59;;;;;;;3.10;2.45;;;21.10;99.90;;;;;;4986552;28;20448;-78
2021/08/16 11:52:26;;;;;;;2.10;1.80;;;20.90;99.90;;;;;;4987585;28;20184;-77
2021/08/16 11:54:51;;;;;;;2.50;1.80;;;20.90;99.90;;;;;;4987412;28;20768;-77
2021/08/16 11:57:24;;;;;;;3.28;2.30;;;20.90;99.90;;;;;;4986476;28;20223;-76
2021/08/16 11:59:54;;;;;;;1.83;1.55;;;20.90;99.90;;;;;;4987990;28;20196;-78
2021/08/16 12:02:22;;;;;;;2.35;1.92;;;20.80;99.90;;;;;;4987807;28;20374;-76
2021/08/16 12:04:49;;;;;;;2.50;2.03;;;21.00;99.90;;;;;;4986628;28;20180;-76
2021/08/16 12:07:21;;;;;;;2.28;1.60;;;21.10;99.90;;;;;;4988021;28;20188;-76
2021/08/16 12:09:48;;;;;;;3.47;1.92;;;21.00;99.90;;;;;;4987437;28;20176;-76
2021/08/16 12:12:16;;;;;;;2.42;1.83;;;21.00;99.90;;;;;;4987347;28;20207;-78
2021/08/16 12:14:42;;;;;;;2.25;2.05;;;21.00;99.90;;;;;;4987965;28;20211;-76
2021/08/16 12:17:08;;;;;;;2.65;1.80;;;21.00;99.90;;;;;;4988090;28;20267;-76
2021/08/16 12:19:34;;;;;;;3.47;2.10;;;20.90;99.90;;;;;;4987209;28;20214;-76
2021/08/16 12:22:06;;;;;;;3.45;2.30;;;21.00;99.90;;;;;;4986171;28;20575;-76
2021/08/16 12:24:33;;;;;;;2.63;2.00;;;20.90;99.90;;;;;;4987405;28;20588;-75
2021/08/16 12:27:04;;;;;;;3.20;2.10;;;20.90;99.90;;;;;;4987229;28;20192;-76
2021/08/16 12:29:39;;;;;;;2.85;1.90;;;20.90;99.90;;;;;;4987540;28;20334;-75
2021/08/16 12:32:16;;;;;;;2.75;1.90;;;21.00;99.90;;;;;;4986068;28;20667;-78
2021/08/16 12:34:41;;;;;;;2.20;1.83;;;21.00;99.90;;;;;;4986940;28;20215;-78
2021/08/16 12:37:20;;;;;;;3.10;2.05;;;20.70;99.90;;;;;;4988577;28;20633;-78
2021/08/16 12:39:45;;;;;;;2.63;2.17;;;20.60;99.90;;;;;;4988203;28;20184;-78
2021/08/16 12:42:11;;;;;;;3.20;1.98;;;20.70;99.90;;;;;;4988570;28;20176;-78
2021/08/16 12:44:43;;;;;;;3.42;2.08;;;20.50;99.90;;;;;;4991784;28;20219;-78
2021/08/16 12:47:08;;;;;;;3.67;1.30;;;20.40;99.90;;;;;;4988388;28;20275;-75